Venture Forth — VNPT — position and weather

sailwx.info

Track history (hours):
 
Tides and Currents Weather Stations Pressure Air Temp Water Temp Dewpoint Dewpoint Depression Visibility Wind Speed Wind Dir Waves Ship Positions

Venture Forth

Last reported at 2018-Jun-18 19:15 UTC. Time now 2018-Jul-18 18:36 UTC.
Position N 54°24' W 130°37'.
Warning: this ship's position is 29 days out of date.

Length 14 m.

Type: Pleasure craft. MMSI: 503045670.

Date/timePositionNaut miles runAvg speedWind from/ knotsBaromVisibWave heightAir tempDewpointWater temp
2018-Jun-18 19:15N 54°24' W 130°37'2 7.3
2018-Jun-18 18:58N 54°22' W 130°35'3 7.4
2018-Jun-18 18:30N 54°19' W 130°33'4 7.1
2018-Jun-18 18:00N 54°16' W 130°30'4 7.2
2018-Jun-18 17:30N 54°13' W 130°27'4 7.8
2018-Jun-18 17:00N 54°10' W 130°23'4 8.3
2018-Jun-18 16:30N 54°07' W 130°19'4 7.4
2018-Jun-18 16:00N 54°03' W 130°16'3 6.9
2018-Jun-18 15:30N 54°00' W 130°13'3 6.8
2018-Jun-18 15:00N 53°57' W 130°14'3 6.6
2018-Jun-18 14:30N 53°54' W 130°16'3 6.2
2018-Jun-18 13:57N 53°51' W 130°18'  
2018-Jun-12 20:07N 52°24' W 128°18'1 5.9
2018-Jun-12 19:58N 52°24' W 128°19'  
Track history (hours):
 
Tides and Currents Weather Stations Pressure Air Temp Water Temp Dewpoint Dewpoint Depression Visibility Wind Speed Wind Dir Waves Ship Positions

Venture Forth

Last reported at 2018-Jun-18 19:15 UTC. Time now 2018-Jul-18 18:36 UTC.
Position N 54°24' W 130°37'.
Warning: this ship's position is 29 days out of date.

Length 14 m.

Type: Pleasure craft. MMSI: 503045670.

Date/timePositionNaut miles runAvg speedWind from/ knotsBaromVisibWave heightAir tempDewpointWater temp
2018-Jun-18 19:15N 54°24' W 130°37'2 7.3
2018-Jun-18 18:58N 54°22' W 130°35'3 7.4
2018-Jun-18 18:30N 54°19' W 130°33'4 7.1
2018-Jun-18 18:00N 54°16' W 130°30'4 7.2
2018-Jun-18 17:30N 54°13' W 130°27'4 7.8
2018-Jun-18 17:00N 54°10' W 130°23'4 8.3
2018-Jun-18 16:30N 54°07' W 130°19'4 7.4
2018-Jun-18 16:00N 54°03' W 130°16'3 6.9
2018-Jun-18 15:30N 54°00' W 130°13'3 6.8
2018-Jun-18 15:00N 53°57' W 130°14'3 6.6
2018-Jun-18 14:30N 53°54' W 130°16'3 6.2
2018-Jun-18 13:57N 53°51' W 130°18'  
2018-Jun-12 20:07N 52°24' W 128°18'1 5.9
2018-Jun-12 19:58N 52°24' W 128°19'  

Dump ship's entire track history